createdAt,value
2022-10-17T00:00:45.142Z,31.65
2022-10-17T00:03:12.006Z,28.50
2022-10-17T00:05:47.600Z,33.40
2022-10-17T00:08:17.029Z,34.83
2022-10-17T00:10:43.744Z,34.15
2022-10-17T00:13:11.292Z,32.35
2022-10-17T00:15:38.436Z,35.35
2022-10-17T00:18:05.318Z,32.67
2022-10-17T00:20:35.711Z,37.28
2022-10-17T00:23:02.439Z,36.85
2022-10-17T00:25:29.089Z,41.13
2022-10-17T00:27:55.843Z,37.33
2022-10-17T00:30:22.557Z,35.58
2022-10-17T00:32:49.363Z,34.85
2022-10-17T00:35:16.070Z,33.15
2022-10-17T00:37:42.790Z,34.42
2022-10-17T00:40:10.454Z,30.98
2022-10-17T00:42:37.168Z,33.80
2022-10-17T00:45:15.269Z,31.38
2022-10-17T00:47:44.712Z,36.92
2022-10-17T00:50:12.982Z,34.00
2022-10-17T00:52:40.991Z,33.45
2022-10-17T00:55:16.561Z,32.28
2022-10-17T00:57:45.298Z,30.95
2022-10-17T01:00:13.370Z,31.58
2022-10-17T01:02:41.775Z,27.88
2022-10-17T01:05:09.434Z,31.27
2022-10-17T01:07:38.083Z,34.05
2022-10-17T01:10:06.503Z,28.63
2022-10-17T01:12:52.429Z,29.02
2022-10-17T01:15:26.023Z,28.27
2022-10-17T01:18:04.154Z,30.45
2022-10-17T01:20:49.960Z,25.95
2022-10-17T01:23:38.235Z,26.85
2022-10-17T01:26:37.545Z,26.85
2022-10-17T01:29:42.552Z,31.65
2022-10-17T01:32:22.377Z,27.30
2022-10-17T01:35:00.171Z,32.10
2022-10-17T01:37:44.126Z,26.70
2022-10-17T01:40:22.808Z,26.30
2022-10-17T01:43:17.281Z,26.45
2022-10-17T01:46:00.710Z,29.42
2022-10-17T01:48:35.075Z,26.60
2022-10-17T01:51:16.954Z,32.35
2022-10-17T01:53:52.993Z,25.70
2022-10-17T01:56:22.788Z,22.58
2022-10-17T01:58:55.590Z,25.65
2022-10-17T02:01:24.723Z,24.10
2022-10-17T02:03:53.468Z,31.42
2022-10-17T02:06:20.948Z,28.27
2022-10-17T02:08:50.137Z,21.27
2022-10-17T02:11:20.245Z,26.35
2022-10-17T02:16:32.919Z,28.13
2022-10-17T02:19:24.112Z,23.52
2022-10-17T02:22:35.404Z,25.90
2022-10-17T02:25:24.132Z,23.73
2022-10-17T02:28:22.510Z,28.65
2022-10-17T02:31:06.446Z,27.65
2022-10-17T02:33:44.334Z,23.42
2022-10-17T02:36:24.387Z,22.13
2022-10-17T02:41:21.098Z,27.15
2022-10-17T02:43:50.556Z,25.23
2022-10-17T02:46:23.567Z,22.77
2022-10-17T02:48:53.259Z,23.08
2022-10-17T02:51:26.047Z,30.67
2022-10-17T02:54:07.053Z,24.08
2022-10-17T02:56:46.871Z,23.10
2022-10-17T02:59:17.821Z,22.85
2022-10-17T03:01:44.783Z,27.75
2022-10-17T03:04:13.990Z,22.48
2022-10-17T03:06:42.690Z,24.42
2022-10-17T03:09:09.567Z,22.73
2022-10-17T03:11:36.272Z,21.20
2022-10-17T03:14:03.022Z,24.92
2022-10-17T03:16:29.878Z,23.52
2022-10-17T03:18:56.654Z,23.45
2022-10-17T03:21:23.408Z,20.90
2022-10-17T03:23:51.299Z,25.48
2022-10-17T03:26:21.036Z,26.17
2022-10-17T03:28:50.650Z,27.95
2022-10-17T03:31:20.664Z,24.30
2022-10-17T03:33:47.817Z,23.15
2022-10-17T03:36:17.130Z,21.52
2022-10-17T03:38:46.381Z,23.45
2022-10-17T03:41:13.550Z,22.02
2022-10-17T03:43:40.721Z,23.55
2022-10-17T03:46:08.484Z,26.05
2022-10-17T03:48:36.310Z,26.88
2022-10-17T03:51:09.173Z,21.15
2022-10-17T03:53:42.027Z,23.83
2022-10-17T03:56:14.501Z,25.48
2022-10-17T03:58:42.257Z,23.92
2022-10-17T04:01:12.173Z,25.25
2022-10-17T04:03:39.506Z,24.40
2022-10-17T04:06:06.882Z,23.10
2022-10-17T04:08:35.681Z,23.40
2022-10-17T04:11:13.618Z,25.17
2022-10-17T04:13:40.870Z,21.80
2022-10-17T04:16:12.085Z,23.38
2022-10-17T04:18:45.635Z,22.50
2022-10-17T04:21:13.440Z,25.50
2022-10-17T04:23:40.343Z,21.63
2022-10-17T04:26:16.165Z,22.02
2022-10-17T04:28:43.088Z,26.00
2022-10-17T04:31:13.078Z,20.73
2022-10-17T04:33:58.580Z,20.48
2022-10-17T04:36:25.491Z,20.67
2022-10-17T04:38:52.360Z,19.05
2022-10-17T04:41:20.870Z,25.25
2022-10-17T04:43:50.964Z,18.80
2022-10-17T04:46:19.817Z,18.30
2022-10-17T04:48:47.133Z,21.50
2022-10-17T04:51:17.617Z,17.35
2022-10-17T04:54:10.469Z,18.17
2022-10-17T04:56:39.667Z,21.63
2022-10-17T04:59:06.471Z,16.80
2022-10-17T05:01:34.112Z,17.25
2022-10-17T05:04:00.761Z,18.85
2022-10-17T05:06:30.293Z,21.23
2022-10-17T05:09:14.113Z,19.10
2022-10-17T05:11:43.192Z,17.35
2022-10-17T05:14:10.554Z,20.75
2022-10-17T05:16:38.223Z,17.65
2022-10-17T05:19:05.171Z,16.77
2022-10-17T05:21:38.857Z,13.90
2022-10-17T05:24:07.393Z,18.92
2022-10-17T05:26:34.145Z,15.27
2022-10-17T05:29:05.488Z,18.83
2022-10-17T05:31:36.018Z,18.13
2022-10-17T05:34:04.512Z,22.60
2022-10-17T05:36:33.259Z,17.25
2022-10-17T05:39:01.425Z,17.80
2022-10-17T05:41:28.917Z,20.50
2022-10-17T05:43:55.672Z,17.00
2022-10-17T05:46:35.199Z,17.30
2022-10-17T05:49:03.596Z,19.95
2022-10-17T05:51:34.935Z,21.52
2022-10-17T05:54:06.445Z,17.85
2022-10-17T05:56:35.776Z,16.65
2022-10-17T05:59:03.052Z,18.90
2022-10-17T06:01:50.303Z,21.65
2022-10-17T06:04:17.370Z,21.63
2022-10-17T06:06:44.149Z,20.38
2022-10-17T06:09:10.920Z,19.77
2022-10-17T06:11:41.658Z,26.35
2022-10-17T06:14:08.760Z,21.25
2022-10-17T06:16:37.202Z,25.92
2022-10-17T06:19:04.164Z,22.23
2022-10-17T06:21:34.432Z,25.08
2022-10-17T06:24:11.656Z,24.83
2022-10-17T06:26:40.932Z,25.33
2022-10-17T06:29:09.123Z,28.13
2022-10-17T06:31:41.610Z,25.73
2022-10-17T06:34:08.288Z,25.80
2022-10-17T06:36:35.292Z,26.85
2022-10-17T06:39:02.412Z,24.63
2022-10-17T06:44:19.793Z,23.25
2022-10-17T06:47:04.796Z,29.45
2022-10-17T06:49:34.311Z,23.42
2022-10-17T06:52:17.468Z,25.35
2022-10-17T06:55:04.858Z,20.90
2022-10-17T06:58:00.629Z,24.63
2022-10-17T07:00:47.244Z,21.80
2022-10-17T07:03:14.044Z,21.75
2022-10-17T07:05:41.903Z,21.02
2022-10-17T07:08:08.794Z,22.30
2022-10-17T07:10:38.604Z,23.65
2022-10-17T07:13:07.156Z,22.65
2022-10-17T07:15:36.919Z,19.40
2022-10-17T07:18:04.043Z,20.65
2022-10-17T07:20:30.735Z,23.55
2022-10-17T07:22:57.690Z,18.75
2022-10-17T07:25:24.674Z,23.40
2022-10-17T07:27:56.697Z,19.67
2022-10-17T07:30:24.375Z,21.70
2022-10-17T07:32:56.644Z,21.65
2022-10-17T07:35:23.395Z,18.63
2022-10-17T07:37:50.648Z,20.63
2022-10-17T07:40:19.725Z,21.33
2022-10-17T07:42:47.063Z,20.08
2022-10-17T07:45:13.817Z,21.02
2022-10-17T07:47:42.513Z,25.48
2022-10-17T07:50:10.241Z,21.45
2022-10-17T07:52:36.959Z,19.95
2022-10-17T07:55:03.835Z,17.70
2022-10-17T07:57:30.721Z,17.23
2022-10-17T07:59:57.367Z,21.13
2022-10-17T08:02:25.533Z,17.05
2022-10-17T08:04:53.362Z,18.85
2022-10-17T08:07:25.361Z,19.65
2022-10-17T08:09:55.224Z,19.60
2022-10-17T08:12:22.165Z,18.10
2022-10-17T08:14:48.861Z,19.10
2022-10-17T08:17:15.471Z,17.33
2022-10-17T08:19:42.220Z,19.17
2022-10-17T08:22:08.925Z,22.20
2022-10-17T08:24:35.707Z,19.45
2022-10-17T08:27:02.496Z,21.10
2022-10-17T08:29:29.283Z,23.98
2022-10-17T08:32:00.849Z,20.70
2022-10-17T08:34:28.216Z,21.48
2022-10-17T08:36:55.066Z,21.27
2022-10-17T08:39:21.743Z,19.13
2022-10-17T08:42:13.565Z,20.55
2022-10-17T08:45:10.824Z,18.65
2022-10-17T08:47:47.064Z,21.35
2022-10-17T08:50:54.375Z,20.38
2022-10-17T08:53:43.273Z,21.27
2022-10-17T08:56:30.333Z,21.10
2022-10-17T08:59:10.849Z,19.50
2022-10-17T09:02:01.809Z,16.05
2022-10-17T09:04:37.985Z,19.35
2022-10-17T09:07:48.409Z,20.15
2022-10-17T09:10:25.738Z,19.08
2022-10-17T09:13:19.389Z,22.67
2022-10-17T09:16:09.374Z,23.50
2022-10-17T09:18:55.274Z,19.83
2022-10-17T09:21:40.317Z,18.77
2022-10-17T09:24:16.108Z,19.80
2022-10-17T09:26:45.612Z,21.55
2022-10-17T09:29:20.496Z,18.05
2022-10-17T09:32:02.646Z,23.05
2022-10-17T09:34:32.829Z,19.45
2022-10-17T09:37:01.958Z,20.02
2022-10-17T09:39:33.130Z,17.63
2022-10-17T09:42:01.687Z,22.85
2022-10-17T09:44:40.979Z,16.23
2022-10-17T09:47:32.032Z,17.40
2022-10-17T09:49:58.754Z,19.67
2022-10-17T09:52:30.916Z,17.17
2022-10-17T09:55:01.235Z,22.00
2022-10-17T09:57:28.168Z,16.92
2022-10-17T10:00:05.178Z,17.35
2022-10-17T10:02:40.890Z,19.55
2022-10-17T10:05:19.997Z,18.70
2022-10-17T10:08:03.180Z,17.75
2022-10-17T10:10:31.870Z,18.90
2022-10-17T10:13:20.505Z,15.48
2022-10-17T10:15:49.834Z,21.20
2022-10-17T10:18:35.439Z,21.42
2022-10-17T10:21:20.329Z,20.58
2022-10-17T10:24:09.817Z,15.48
2022-10-17T10:26:41.170Z,16.58
2022-10-17T10:29:22.536Z,19.85
2022-10-17T10:31:51.519Z,19.35
2022-10-17T10:34:25.959Z,19.80
2022-10-17T10:37:01.073Z,19.77
2022-10-17T10:39:52.112Z,18.48
2022-10-17T10:42:22.478Z,16.58
2022-10-17T10:44:50.637Z,20.27
2022-10-17T10:47:22.149Z,20.58
2022-10-17T10:49:52.927Z,19.77
2022-10-17T10:52:41.494Z,15.57
2022-10-17T10:55:44.110Z,14.15
2022-10-17T10:58:32.892Z,14.63
2022-10-17T11:01:05.862Z,22.02
2022-10-17T11:03:47.796Z,15.70
2022-10-17T11:06:25.585Z,16.42
2022-10-17T11:09:24.739Z,15.27
2022-10-17T11:14:46.979Z,13.38
2022-10-17T11:17:39.587Z,17.17
2022-10-17T11:20:06.283Z,14.48
2022-10-17T11:22:40.268Z,13.82
2022-10-17T11:25:28.763Z,17.40
2022-10-17T11:27:55.725Z,15.70
2022-10-17T11:30:27.018Z,19.10
2022-10-17T11:32:58.239Z,18.80
2022-10-17T11:35:37.336Z,19.30
2022-10-17T11:38:42.081Z,16.55
2022-10-17T11:41:15.137Z,15.70
2022-10-17T11:44:06.049Z,19.63
2022-10-17T11:46:36.029Z,21.23
2022-10-17T11:49:16.192Z,19.83
2022-10-17T11:52:06.709Z,15.18
2022-10-17T11:54:35.564Z,15.75
2022-10-17T11:57:14.068Z,16.27
2022-10-17T12:00:16.941Z,15.52
2022-10-17T12:03:11.498Z,14.38
2022-10-17T12:06:00.109Z,12.77
2022-10-17T12:08:45.109Z,15.73
2022-10-17T12:11:28.586Z,14.63
2022-10-17T12:13:56.899Z,18.88
2022-10-17T12:16:23.699Z,14.40
2022-10-17T12:19:02.422Z,15.82
2022-10-17T12:21:55.374Z,17.05
2022-10-17T12:24:40.156Z,16.00
2022-10-17T12:27:29.116Z,16.30
2022-10-17T12:30:24.535Z,15.55
2022-10-17T12:33:06.115Z,16.10
2022-10-17T12:35:35.453Z,16.88
2022-10-17T12:38:03.929Z,15.13
2022-10-17T12:40:36.582Z,17.23
2022-10-17T12:43:29.031Z,14.98
2022-10-17T12:45:57.938Z,16.52
2022-10-17T12:48:34.598Z,19.10
2022-10-17T12:51:30.847Z,17.92
2022-10-17T12:54:13.916Z,14.33
2022-10-17T12:56:45.234Z,13.40
2022-10-17T12:59:29.145Z,18.48
2022-10-17T13:02:03.512Z,14.80
2022-10-17T13:04:31.846Z,13.50
2022-10-17T13:07:01.081Z,12.65
2022-10-17T13:09:35.409Z,13.25
2022-10-17T13:12:06.413Z,12.57
2022-10-17T13:14:34.136Z,19.00
2022-10-17T13:17:03.360Z,11.30
2022-10-17T13:19:45.446Z,10.88
2022-10-17T13:22:18.689Z,14.55
2022-10-17T13:24:46.257Z,11.40
2022-10-17T13:27:31.551Z,12.68
2022-10-17T13:30:01.495Z,13.43
2022-10-17T13:32:39.749Z,15.05
2022-10-17T13:35:16.261Z,12.00
2022-10-17T13:37:50.343Z,16.20
2022-10-17T13:40:44.234Z,12.90
2022-10-17T13:43:19.508Z,15.13
2022-10-17T13:45:55.213Z,14.73
2022-10-17T13:48:25.425Z,12.23
2022-10-17T13:50:56.381Z,10.60
2022-10-17T13:53:30.608Z,10.48
2022-10-17T13:56:29.546Z,12.60
2022-10-17T13:59:05.085Z,9.82
2022-10-17T14:01:32.552Z,11.15
2022-10-17T14:04:20.087Z,12.40
2022-10-17T14:06:49.501Z,10.02
2022-10-17T14:09:23.174Z,9.45
2022-10-17T14:11:58.583Z,11.40
2022-10-17T14:14:26.659Z,11.80
2022-10-17T14:16:54.318Z,10.57
2022-10-17T14:19:31.031Z,10.52
2022-10-17T14:22:18.878Z,10.05
2022-10-17T14:24:45.972Z,12.00
2022-10-17T14:27:31.414Z,11.77
2022-10-17T14:30:01.008Z,11.07
2022-10-17T14:32:30.291Z,8.82
2022-10-17T14:35:17.852Z,11.63
2022-10-17T14:37:48.860Z,10.18
2022-10-17T14:40:24.090Z,13.80
2022-10-17T14:42:53.209Z,9.43
2022-10-17T14:45:34.687Z,10.73
2022-10-17T14:48:11.707Z,11.57
2022-10-17T14:50:38.833Z,10.93
2022-10-17T14:53:07.311Z,9.88
2022-10-17T14:55:35.549Z,9.07
2022-10-17T14:58:15.301Z,9.00
2022-10-17T15:00:42.070Z,10.82
2022-10-17T15:03:08.713Z,11.32
2022-10-17T15:05:35.614Z,9.18
2022-10-17T15:08:02.187Z,12.60
2022-10-17T15:10:33.841Z,11.77
2022-10-17T15:13:26.693Z,8.77
2022-10-17T15:15:51.928Z,8.35
2022-10-17T15:18:18.963Z,10.85
2022-10-17T15:20:45.643Z,9.15
2022-10-17T15:23:12.239Z,10.23
2022-10-17T15:25:39.441Z,8.82
2022-10-17T15:28:06.082Z,9.73
2022-10-17T15:30:36.355Z,10.45
2022-10-17T15:33:03.064Z,7.68
2022-10-17T15:35:30.325Z,9.07
2022-10-17T15:37:56.988Z,8.35
2022-10-17T15:40:26.516Z,8.82
2022-10-17T15:42:53.272Z,8.25
2022-10-17T15:45:22.301Z,10.30
2022-10-17T15:47:54.860Z,11.32
2022-10-17T15:50:21.978Z,9.38
2022-10-17T15:52:52.536Z,7.93
2022-10-17T15:55:20.076Z,12.02
2022-10-17T15:57:48.247Z,10.57
2022-10-17T16:00:18.060Z,10.10
2022-10-17T16:05:23.501Z,12.18
2022-10-17T16:07:50.510Z,10.43
2022-10-17T16:10:18.167Z,8.73
2022-10-17T16:12:45.324Z,11.30
2022-10-17T16:15:27.946Z,8.68
2022-10-17T16:17:56.873Z,9.52
2022-10-17T16:20:24.960Z,12.88
2022-10-17T16:22:54.598Z,11.95
2022-10-17T16:25:27.053Z,11.48
2022-10-17T16:27:56.427Z,8.82
2022-10-17T16:30:25.257Z,12.15
2022-10-17T16:32:52.950Z,15.83
2022-10-17T16:35:25.428Z,12.18
2022-10-17T16:37:52.194Z,9.52
2022-10-17T16:40:19.443Z,11.68
2022-10-17T16:42:46.501Z,21.23
2022-10-17T16:45:22.250Z,12.30
2022-10-17T16:47:49.716Z,13.13
2022-10-17T16:50:16.722Z,16.02
2022-10-17T16:52:43.409Z,13.02
2022-10-17T16:55:10.199Z,14.60
2022-10-17T16:57:37.065Z,12.50
2022-10-17T17:00:06.265Z,13.40
2022-10-17T17:02:33.343Z,10.68
2022-10-17T17:05:00.313Z,13.90
2022-10-17T17:07:29.515Z,18.35
2022-10-17T17:09:56.656Z,14.25
2022-10-17T17:12:23.553Z,12.85
2022-10-17T17:14:50.184Z,11.85
2022-10-17T17:17:30.181Z,16.30
2022-10-17T17:20:03.947Z,20.13
2022-10-17T17:22:30.724Z,14.20
2022-10-17T17:24:57.467Z,16.85
2022-10-17T17:27:25.188Z,12.88
2022-10-17T17:29:51.881Z,14.00
2022-10-17T17:32:18.466Z,13.40
2022-10-17T17:34:45.319Z,13.20
2022-10-17T17:37:11.981Z,13.55
2022-10-17T17:39:38.687Z,11.57
2022-10-17T17:42:05.306Z,14.18
2022-10-17T17:44:31.970Z,12.10
2022-10-17T17:46:58.849Z,10.35
2022-10-17T17:49:25.502Z,14.18
2022-10-17T17:51:52.140Z,12.45
2022-10-17T17:54:18.791Z,15.38
2022-10-17T17:56:45.405Z,14.73
2022-10-17T17:59:13.456Z,12.43
2022-10-17T18:01:40.702Z,10.30
2022-10-17T18:04:08.797Z,22.27
2022-10-17T18:06:37.577Z,14.43
2022-10-17T18:09:05.551Z,26.50
2022-10-17T18:11:32.230Z,26.73
2022-10-17T18:14:01.447Z,30.42
2022-10-17T18:16:29.952Z,26.45
2022-10-17T18:18:58.797Z,16.98
2022-10-17T18:21:27.985Z,11.52
2022-10-17T18:23:54.618Z,11.32
2022-10-17T18:26:21.352Z,12.23
2022-10-17T18:28:49.523Z,8.18
2022-10-17T18:31:36.083Z,10.82
2022-10-17T18:34:04.540Z,14.82
2022-10-17T18:36:32.805Z,12.38
2022-10-17T18:39:00.466Z,11.02
2022-10-17T18:41:28.180Z,8.98
2022-10-17T18:43:56.643Z,13.88
2022-10-17T18:46:27.362Z,12.95
2022-10-17T18:48:54.311Z,13.35
2022-10-17T18:51:23.317Z,12.48
2022-10-17T18:53:52.983Z,12.67
2022-10-17T18:56:20.578Z,8.85
2022-10-17T18:58:47.662Z,9.20
2022-10-17T19:01:17.670Z,10.82
2022-10-17T19:03:46.487Z,9.75
2022-10-17T19:06:16.195Z,8.80
2022-10-17T19:08:43.735Z,8.05
2022-10-17T19:11:15.439Z,8.43
2022-10-17T19:13:43.301Z,8.30
2022-10-17T19:16:22.733Z,8.75
2022-10-17T19:18:55.458Z,9.75
2022-10-17T19:21:22.554Z,8.82
2022-10-17T19:23:51.304Z,9.93
2022-10-17T19:26:18.736Z,9.10
2022-10-17T19:28:45.661Z,10.30
2022-10-17T19:31:16.827Z,10.15
2022-10-17T19:33:44.863Z,10.75
2022-10-17T19:36:12.768Z,13.43
2022-10-17T19:38:39.743Z,11.32
2022-10-17T19:41:08.086Z,13.85
2022-10-17T19:43:39.775Z,14.95
2022-10-17T19:46:09.465Z,9.75
2022-10-17T19:48:37.094Z,9.88
2022-10-17T19:51:08.490Z,12.13
2022-10-17T19:53:35.282Z,8.93
2022-10-17T19:56:01.968Z,13.05
2022-10-17T19:58:28.720Z,10.50
2022-10-17T20:00:57.666Z,12.85
2022-10-17T20:03:25.243Z,13.93
2022-10-17T20:05:52.054Z,12.95
2022-10-17T20:08:19.179Z,11.52
2022-10-17T20:10:46.258Z,46.40
2022-10-17T20:13:14.008Z,30.65
2022-10-17T20:15:41.171Z,15.98
2022-10-17T20:18:08.108Z,17.08
2022-10-17T20:20:36.084Z,17.55
2022-10-17T20:23:03.550Z,23.98
2022-10-17T20:25:30.590Z,23.85
2022-10-17T20:27:57.329Z,19.33
2022-10-17T20:30:23.987Z,13.50
2022-10-17T20:32:55.137Z,16.10
2022-10-17T20:35:22.365Z,14.32
2022-10-17T20:37:49.038Z,11.52
2022-10-17T20:43:07.042Z,9.75
2022-10-17T20:45:51.516Z,9.05
2022-10-17T20:48:18.885Z,9.80
2022-10-17T20:50:46.042Z,12.00
2022-10-17T20:56:05.324Z,10.48
2022-10-17T20:58:32.230Z,10.32
2022-10-17T21:00:58.853Z,10.10
2022-10-17T21:03:26.738Z,11.38
2022-10-17T21:05:53.554Z,10.00
2022-10-17T21:08:20.470Z,8.15
2022-10-17T21:10:47.116Z,7.57
2022-10-17T21:13:14.282Z,9.82
2022-10-17T21:15:40.915Z,11.88
2022-10-17T21:18:07.577Z,11.27
2022-10-17T21:20:34.390Z,10.20
2022-10-17T21:23:01.016Z,9.95
2022-10-17T21:25:27.668Z,10.73
2022-10-17T21:27:54.311Z,12.45
2022-10-17T21:30:21.701Z,12.88
2022-10-17T21:32:52.128Z,17.38
2022-10-17T21:35:18.968Z,13.80
2022-10-17T21:37:45.568Z,8.57
2022-10-17T21:40:12.749Z,11.50
2022-10-17T21:42:39.461Z,11.80
2022-10-17T21:45:14.989Z,10.05
2022-10-17T21:47:54.977Z,14.68
2022-10-17T21:50:29.829Z,11.70
2022-10-17T21:52:58.510Z,11.65
2022-10-17T21:55:25.278Z,10.98
2022-10-17T21:57:52.008Z,11.35
2022-10-17T22:00:18.802Z,12.50
2022-10-17T22:02:45.637Z,14.45
2022-10-17T22:05:12.378Z,12.02
2022-10-17T22:07:39.135Z,18.80
2022-10-17T22:10:05.999Z,15.00
2022-10-17T22:12:33.060Z,17.30
2022-10-17T22:14:59.950Z,15.32
2022-10-17T22:17:26.648Z,13.48
2022-10-17T22:19:53.321Z,15.75
2022-10-17T22:22:19.954Z,12.43
2022-10-17T22:24:46.646Z,15.02
2022-10-17T22:27:13.289Z,15.00
2022-10-17T22:29:40.047Z,18.05
2022-10-17T22:32:06.690Z,15.48
2022-10-17T22:34:33.314Z,14.52
2022-10-17T22:36:59.949Z,15.10
2022-10-17T22:39:26.650Z,15.43
2022-10-17T22:41:53.286Z,13.02
2022-10-17T22:44:20.007Z,16.95
2022-10-17T22:46:46.682Z,16.48
2022-10-17T22:49:13.458Z,16.30
2022-10-17T22:51:40.137Z,16.25
2022-10-17T22:54:07.115Z,11.27
2022-10-17T22:56:33.787Z,11.95
2022-10-17T22:59:00.695Z,12.85
2022-10-17T23:01:27.348Z,12.00
2022-10-17T23:03:54.215Z,13.38
2022-10-17T23:06:21.360Z,12.40
2022-10-17T23:08:48.908Z,19.00
2022-10-17T23:11:16.050Z,13.38
2022-10-17T23:13:42.759Z,11.07
2022-10-17T23:16:09.721Z,10.93
2022-10-17T23:18:37.955Z,10.18
2022-10-17T23:21:05.132Z,10.70
2022-10-17T23:23:31.832Z,9.75
2022-10-17T23:26:10.526Z,12.43
2022-10-17T23:28:37.867Z,13.48
2022-10-17T23:31:13.731Z,10.32
2022-10-17T23:33:41.515Z,16.08
2022-10-17T23:36:10.573Z,17.17
2022-10-17T23:38:37.840Z,12.13
2022-10-17T23:41:04.658Z,13.18
2022-10-17T23:43:31.947Z,12.35
2022-10-17T23:45:58.550Z,12.43
2022-10-17T23:48:25.272Z,15.65
2022-10-17T23:50:52.048Z,11.93
2022-10-17T23:53:18.738Z,10.35
2022-10-17T23:55:45.470Z,10.68
2022-10-17T23:58:12.129Z,10.80
